Portada
METAR-TAF:

METAR-TAF

Aeropuertos :

Zaragoza, España

Aeropuerto de Zaragoza

latitud: 41-40N, longitud: 001-01W, altitud: 263 m

Observación

El informe se hizo hace 26 minutos, a las 15:30 UTC
Viento 2 kt del norte-noreste
Temperatura 11°C
Humedad 40%
Presión 1007 hPa
Visibilidad 10 km o más
sin nubes por debajo de 1500 m y sin presencia de cumulonimbus.

METAR: LEZG 241530Z 03002KT CAVOK 11/M02 Q1007

Hora: 16:56 (15:56 UTC)

Pronóstico

El informe se hizo hace 4 horas y 56 minutos, a las 11:00 UTC
Pronóstico válido del 24 a las 12 UTC al 25 a las 12 UTC
Viento 6 kt del oeste-noroeste
Visibilidad 10 km o más
Escasas nubes a una altura de 4000 ft

TAF: LEZG 241100Z 2412/2512 29006KT 9999 FEW040 TX10/2414Z TN00/2506Z

Observaciones y pronósticos meteorológicos de más de 4000 aeropuertos (mensajes METAR y TAF).

Los puntos amarillos y rojos representan las estaciones disponibles.

Ponga el ratón en el punto deseado para ver el nombre de la estación.

Haga clic para ver las observaciones y los pronósticos meteorológicos.

Para cambiar el mapa : haga clic en los botones verdes con una cruz de color negro para hacer un zoom, en el botón verde con un guión para alejar o en las flechas verdes para mapas adyacentes.


METAR-TAF: